sensor_id;sensor_type;location;lat;lon;timestamp;temperature;humidity
47338;DHT22;33069;51.970;5.892;2023-09-12T00:00:15;19.80;90.30
47338;DHT22;33069;51.970;5.892;2023-09-12T00:03:02;19.90;90.30
47338;DHT22;33069;51.970;5.892;2023-09-12T00:05:55;19.90;90.30
47338;DHT22;33069;51.970;5.892;2023-09-12T00:08:41;19.90;90.30
47338;DHT22;33069;51.970;5.892;2023-09-12T00:11:28;19.70;90.20
47338;DHT22;33069;51.970;5.892;2023-09-12T00:14:18;19.60;90.30
47338;DHT22;33069;51.970;5.892;2023-09-12T00:17:04;19.60;90.40
47338;DHT22;33069;51.970;5.892;2023-09-12T00:19:50;19.60;90.40
47338;DHT22;33069;51.970;5.892;2023-09-12T00:22:36;19.50;90.50
47338;DHT22;33069;51.970;5.892;2023-09-12T00:25:22;19.60;90.50
47338;DHT22;33069;51.970;5.892;2023-09-12T00:28:08;19.70;90.50
47338;DHT22;33069;51.970;5.892;2023-09-12T00:30:53;19.70;90.50
47338;DHT22;33069;51.970;5.892;2023-09-12T00:33:39;19.70;90.50
47338;DHT22;33069;51.970;5.892;2023-09-12T00:36:25;19.70;90.50
47338;DHT22;33069;51.970;5.892;2023-09-12T00:39:11;19.70;90.60
47338;DHT22;33069;51.970;5.892;2023-09-12T00:41:57;19.70;90.70
47338;DHT22;33069;51.970;5.892;2023-09-12T00:44:43;19.80;90.60
47338;DHT22;33069;51.970;5.892;2023-09-12T00:47:30;19.70;90.60
47338;DHT22;33069;51.970;5.892;2023-09-12T00:50:18;19.80;90.60
47338;DHT22;33069;51.970;5.892;2023-09-12T00:53:05;19.90;90.60
47338;DHT22;33069;51.970;5.892;2023-09-12T00:55:56;19.90;90.60
47338;DHT22;33069;51.970;5.892;2023-09-12T00:58:43;19.90;90.50
47338;DHT22;33069;51.970;5.892;2023-09-12T01:01:32;19.90;90.50
47338;DHT22;33069;51.970;5.892;2023-09-12T01:04:19;20.00;90.50
47338;DHT22;33069;51.970;5.892;2023-09-12T01:07:05;19.90;90.40
47338;DHT22;33069;51.970;5.892;2023-09-12T01:09:51;19.80;90.30
47338;DHT22;33069;51.970;5.892;2023-09-12T01:12:37;19.70;90.10
47338;DHT22;33069;51.970;5.892;2023-09-12T01:15:23;19.70;90.10
47338;DHT22;33069;51.970;5.892;2023-09-12T01:18:10;19.70;90.10
47338;DHT22;33069;51.970;5.892;2023-09-12T01:21:47;19.60;90.00
47338;DHT22;33069;51.970;5.892;2023-09-12T01:25:08;19.50;90.00
47338;DHT22;33069;51.970;5.892;2023-09-12T01:28:02;19.50;89.90
47338;DHT22;33069;51.970;5.892;2023-09-12T01:30:52;19.40;89.90
47338;DHT22;33069;51.970;5.892;2023-09-12T01:33:40;19.30;89.90
47338;DHT22;33069;51.970;5.892;2023-09-12T01:36:26;19.50;90.00
47338;DHT22;33069;51.970;5.892;2023-09-12T01:39:12;19.50;89.90
47338;DHT22;33069;51.970;5.892;2023-09-12T01:41:59;19.30;89.90
47338;DHT22;33069;51.970;5.892;2023-09-12T01:44:46;19.40;90.00
47338;DHT22;33069;51.970;5.892;2023-09-12T01:47:33;19.30;90.00
47338;DHT22;33069;51.970;5.892;2023-09-12T01:50:20;19.30;90.00
47338;DHT22;33069;51.970;5.892;2023-09-12T01:53:06;19.40;90.00
47338;DHT22;33069;51.970;5.892;2023-09-12T01:55:53;19.30;90.00
47338;DHT22;33069;51.970;5.892;2023-09-12T01:58:39;19.30;90.00
47338;DHT22;33069;51.970;5.892;2023-09-12T02:01:25;19.30;90.10
47338;DHT22;33069;51.970;5.892;2023-09-12T02:04:13;19.30;90.00
47338;DHT22;33069;51.970;5.892;2023-09-12T02:06:59;19.30;90.00
47338;DHT22;33069;51.970;5.892;2023-09-12T02:09:45;19.30;90.00
47338;DHT22;33069;51.970;5.892;2023-09-12T02:12:33;19.20;90.10
47338;DHT22;33069;51.970;5.892;2023-09-12T02:15:19;19.20;90.10
47338;DHT22;33069;51.970;5.892;2023-09-12T02:18:05;19.10;90.20
47338;DHT22;33069;51.970;5.892;2023-09-12T02:20:51;19.20;90.40
47338;DHT22;33069;51.970;5.892;2023-09-12T02:23:37;19.10;90.40
47338;DHT22;33069;51.970;5.892;2023-09-12T02:26:23;19.30;90.40
47338;DHT22;33069;51.970;5.892;2023-09-12T02:29:09;19.30;90.30
47338;DHT22;33069;51.970;5.892;2023-09-12T02:31:56;19.30;90.20
47338;DHT22;33069;51.970;5.892;2023-09-12T02:34:42;19.30;90.20
47338;DHT22;33069;51.970;5.892;2023-09-12T02:37:28;19.30;90.10
47338;DHT22;33069;51.970;5.892;2023-09-12T02:40:14;19.40;90.10
47338;DHT22;33069;51.970;5.892;2023-09-12T02:43:00;19.50;90.10
47338;DHT22;33069;51.970;5.892;2023-09-12T02:45:46;19.50;90.10
47338;DHT22;33069;51.970;5.892;2023-09-12T02:48:32;19.30;90.00
47338;DHT22;33069;51.970;5.892;2023-09-12T02:51:18;19.40;90.00
47338;DHT22;33069;51.970;5.892;2023-09-12T02:54:04;19.40;90.00
47338;DHT22;33069;51.970;5.892;2023-09-12T02:56:50;19.30;90.00
47338;DHT22;33069;51.970;5.892;2023-09-12T02:59:36;19.30;90.10
47338;DHT22;33069;51.970;5.892;2023-09-12T03:02:22;19.30;90.10
47338;DHT22;33069;51.970;5.892;2023-09-12T03:05:08;19.30;90.10
47338;DHT22;33069;51.970;5.892;2023-09-12T03:07:54;19.20;90.10
47338;DHT22;33069;51.970;5.892;2023-09-12T03:10:40;19.30;90.20
47338;DHT22;33069;51.970;5.892;2023-09-12T03:13:27;19.30;90.10
47338;DHT22;33069;51.970;5.892;2023-09-12T03:16:14;19.20;90.10
47338;DHT22;33069;51.970;5.892;2023-09-12T03:19:00;19.20;90.20
47338;DHT22;33069;51.970;5.892;2023-09-12T03:21:48;19.10;90.20
47338;DHT22;33069;51.970;5.892;2023-09-12T03:24:34;19.00;90.30
47338;DHT22;33069;51.970;5.892;2023-09-12T03:27:19;18.90;90.40
47338;DHT22;33069;51.970;5.892;2023-09-12T03:30:06;19.00;90.50
47338;DHT22;33069;51.970;5.892;2023-09-12T03:32:52;18.90;90.50
47338;DHT22;33069;51.970;5.892;2023-09-12T03:35:38;19.00;90.50
47338;DHT22;33069;51.970;5.892;2023-09-12T03:38:24;18.90;90.50
47338;DHT22;33069;51.970;5.892;2023-09-12T03:41:10;18.90;90.50
47338;DHT22;33069;51.970;5.892;2023-09-12T03:43:56;19.10;90.60
47338;DHT22;33069;51.970;5.892;2023-09-12T03:46:42;19.20;90.50
47338;DHT22;33069;51.970;5.892;2023-09-12T03:49:28;19.10;90.50
47338;DHT22;33069;51.970;5.892;2023-09-12T03:52:14;19.10;90.60
47338;DHT22;33069;51.970;5.892;2023-09-12T03:55:00;19.00;90.60
47338;DHT22;33069;51.970;5.892;2023-09-12T03:57:46;19.00;90.70
47338;DHT22;33069;51.970;5.892;2023-09-12T04:00:32;19.00;90.70
47338;DHT22;33069;51.970;5.892;2023-09-12T04:03:18;19.10;90.80
47338;DHT22;33069;51.970;5.892;2023-09-12T04:06:06;19.20;90.80
47338;DHT22;33069;51.970;5.892;2023-09-12T04:08:52;19.10;90.70
47338;DHT22;33069;51.970;5.892;2023-09-12T04:11:38;19.10;90.70
47338;DHT22;33069;51.970;5.892;2023-09-12T04:14:24;18.90;90.60
47338;DHT22;33069;51.970;5.892;2023-09-12T04:17:10;18.80;90.70
47338;DHT22;33069;51.970;5.892;2023-09-12T04:19:56;18.80;90.80
47338;DHT22;33069;51.970;5.892;2023-09-12T04:22:42;18.80;90.80
47338;DHT22;33069;51.970;5.892;2023-09-12T04:25:29;18.90;90.90
47338;DHT22;33069;51.970;5.892;2023-09-12T04:28:15;18.80;90.90
47338;DHT22;33069;51.970;5.892;2023-09-12T04:31:04;19.00;91.00
47338;DHT22;33069;51.970;5.892;2023-09-12T04:33:53;19.10;91.00
47338;DHT22;33069;51.970;5.892;2023-09-12T04:36:39;19.20;91.00
47338;DHT22;33069;51.970;5.892;2023-09-12T04:39:25;19.30;91.10
47338;DHT22;33069;51.970;5.892;2023-09-12T04:42:11;19.30;91.00
47338;DHT22;33069;51.970;5.892;2023-09-12T04:44:57;19.30;91.00
47338;DHT22;33069;51.970;5.892;2023-09-12T04:47:43;19.10;90.90
47338;DHT22;33069;51.970;5.892;2023-09-12T04:50:29;19.00;91.00
47338;DHT22;33069;51.970;5.892;2023-09-12T04:53:16;19.00;91.10
47338;DHT22;33069;51.970;5.892;2023-09-12T04:56:02;19.10;91.20
47338;DHT22;33069;51.970;5.892;2023-09-12T04:58:48;19.20;91.20
47338;DHT22;33069;51.970;5.892;2023-09-12T05:01:34;19.20;91.20
47338;DHT22;33069;51.970;5.892;2023-09-12T05:04:20;19.00;91.20
47338;DHT22;33069;51.970;5.892;2023-09-12T05:07:06;19.00;91.30
47338;DHT22;33069;51.970;5.892;2023-09-12T05:09:52;19.00;91.30
47338;DHT22;33069;51.970;5.892;2023-09-12T05:12:39;19.00;91.30
47338;DHT22;33069;51.970;5.892;2023-09-12T05:15:25;18.90;91.30
47338;DHT22;33069;51.970;5.892;2023-09-12T05:18:10;19.10;91.40
47338;DHT22;33069;51.970;5.892;2023-09-12T05:20:56;19.20;91.40
47338;DHT22;33069;51.970;5.892;2023-09-12T05:23:42;19.10;91.50
47338;DHT22;33069;51.970;5.892;2023-09-12T05:26:28;19.20;91.50
47338;DHT22;33069;51.970;5.892;2023-09-12T05:29:14;19.20;91.50
47338;DHT22;33069;51.970;5.892;2023-09-12T05:32:01;19.20;91.50
47338;DHT22;33069;51.970;5.892;2023-09-12T05:34:47;19.20;91.50
47338;DHT22;33069;51.970;5.892;2023-09-12T05:37:35;19.10;91.60
47338;DHT22;33069;51.970;5.892;2023-09-12T05:40:21;19.10;91.50
47338;DHT22;33069;51.970;5.892;2023-09-12T05:43:07;19.00;91.60
47338;DHT22;33069;51.970;5.892;2023-09-12T05:45:53;19.10;91.60
47338;DHT22;33069;51.970;5.892;2023-09-12T05:48:39;19.10;91.60
47338;DHT22;33069;51.970;5.892;2023-09-12T05:51:25;19.00;91.70
47338;DHT22;33069;51.970;5.892;2023-09-12T05:54:11;19.10;91.70
47338;DHT22;33069;51.970;5.892;2023-09-12T05:56:59;19.20;91.70
47338;DHT22;33069;51.970;5.892;2023-09-12T05:59:45;19.20;91.60
47338;DHT22;33069;51.970;5.892;2023-09-12T06:02:31;19.30;91.60
47338;DHT22;33069;51.970;5.892;2023-09-12T06:05:19;19.30;91.60
47338;DHT22;33069;51.970;5.892;2023-09-12T06:08:05;19.20;91.60
47338;DHT22;33069;51.970;5.892;2023-09-12T06:10:51;19.30;91.60
47338;DHT22;33069;51.970;5.892;2023-09-12T06:13:39;19.30;91.60
47338;DHT22;33069;51.970;5.892;2023-09-12T06:16:25;19.30;91.50
47338;DHT22;33069;51.970;5.892;2023-09-12T06:19:12;19.40;91.50
47338;DHT22;33069;51.970;5.892;2023-09-12T06:22:00;19.40;91.40
47338;DHT22;33069;51.970;5.892;2023-09-12T06:24:46;19.30;91.40
47338;DHT22;33069;51.970;5.892;2023-09-12T06:27:32;19.40;91.30
47338;DHT22;33069;51.970;5.892;2023-09-12T06:30:18;19.50;91.30
47338;DHT22;33069;51.970;5.892;2023-09-12T06:33:04;19.40;91.30
47338;DHT22;33069;51.970;5.892;2023-09-12T06:35:50;19.40;91.30
47338;DHT22;33069;51.970;5.892;2023-09-12T06:38:38;19.40;91.20
47338;DHT22;33069;51.970;5.892;2023-09-12T06:41:24;19.40;91.20
47338;DHT22;33069;51.970;5.892;2023-09-12T06:44:10;19.30;91.10
47338;DHT22;33069;51.970;5.892;2023-09-12T06:46:56;19.30;91.10
47338;DHT22;33069;51.970;5.892;2023-09-12T06:49:42;19.30;91.10
47338;DHT22;33069;51.970;5.892;2023-09-12T06:52:28;19.40;91.10
47338;DHT22;33069;51.970;5.892;2023-09-12T06:55:14;19.40;91.10
47338;DHT22;33069;51.970;5.892;2023-09-12T06:58:00;19.30;91.10
47338;DHT22;33069;51.970;5.892;2023-09-12T07:00:46;19.40;91.00
47338;DHT22;33069;51.970;5.892;2023-09-12T07:03:34;19.40;91.00
47338;DHT22;33069;51.970;5.892;2023-09-12T07:06:20;19.60;90.90
47338;DHT22;33069;51.970;5.892;2023-09-12T07:09:06;19.40;90.50
47338;DHT22;33069;51.970;5.892;2023-09-12T07:11:54;19.50;90.50
47338;DHT22;33069;51.970;5.892;2023-09-12T07:14:40;19.50;90.30
47338;DHT22;33069;51.970;5.892;2023-09-12T07:17:28;19.70;90.40
47338;DHT22;33069;51.970;5.892;2023-09-12T07:20:14;19.80;90.30
47338;DHT22;33069;51.970;5.892;2023-09-12T07:23:01;19.70;90.20
47338;DHT22;33069;51.970;5.892;2023-09-12T07:25:47;19.80;89.90
47338;DHT22;33069;51.970;5.892;2023-09-12T07:28:33;20.00;89.80
47338;DHT22;33069;51.970;5.892;2023-09-12T07:31:19;20.00;89.30
47338;DHT22;33069;51.970;5.892;2023-09-12T07:34:05;20.00;89.10
47338;DHT22;33069;51.970;5.892;2023-09-12T07:36:51;20.10;88.80
47338;DHT22;33069;51.970;5.892;2023-09-12T07:39:37;20.10;88.50
47338;DHT22;33069;51.970;5.892;2023-09-12T07:42:24;20.20;88.40
47338;DHT22;33069;51.970;5.892;2023-09-12T07:45:10;20.20;88.20
47338;DHT22;33069;51.970;5.892;2023-09-12T07:47:57;20.30;88.20
47338;DHT22;33069;51.970;5.892;2023-09-12T07:50:42;20.40;88.10
47338;DHT22;33069;51.970;5.892;2023-09-12T07:53:28;20.30;87.70
47338;DHT22;33069;51.970;5.892;2023-09-12T07:56:14;20.40;87.90
47338;DHT22;33069;51.970;5.892;2023-09-12T07:59:00;20.40;87.70
47338;DHT22;33069;51.970;5.892;2023-09-12T08:01:46;20.50;87.60
47338;DHT22;33069;51.970;5.892;2023-09-12T08:04:32;20.60;87.50
47338;DHT22;33069;51.970;5.892;2023-09-12T08:07:20;20.60;87.20
47338;DHT22;33069;51.970;5.892;2023-09-12T08:10:06;20.60;86.80
47338;DHT22;33069;51.970;5.892;2023-09-12T08:12:53;20.70;86.60
47338;DHT22;33069;51.970;5.892;2023-09-12T08:15:39;20.60;86.30
47338;DHT22;33069;51.970;5.892;2023-09-12T08:18:27;20.60;86.50
47338;DHT22;33069;51.970;5.892;2023-09-12T08:21:14;20.50;86.50
47338;DHT22;33069;51.970;5.892;2023-09-12T08:24:00;20.30;86.40
47338;DHT22;33069;51.970;5.892;2023-09-12T08:26:46;20.30;86.50
47338;DHT22;33069;51.970;5.892;2023-09-12T08:29:33;20.40;86.60
47338;DHT22;33069;51.970;5.892;2023-09-12T08:32:19;20.40;86.60
47338;DHT22;33069;51.970;5.892;2023-09-12T08:35:06;20.40;86.80
47338;DHT22;33069;51.970;5.892;2023-09-12T08:37:52;20.30;86.20
47338;DHT22;33069;51.970;5.892;2023-09-12T08:40:38;20.40;86.60
47338;DHT22;33069;51.970;5.892;2023-09-12T08:43:25;20.60;86.50
47338;DHT22;33069;51.970;5.892;2023-09-12T08:46:12;20.80;86.30
47338;DHT22;33069;51.970;5.892;2023-09-12T08:48:59;20.60;85.50
47338;DHT22;33069;51.970;5.892;2023-09-12T08:51:45;20.70;85.20
47338;DHT22;33069;51.970;5.892;2023-09-12T08:54:34;20.70;85.20
47338;DHT22;33069;51.970;5.892;2023-09-12T08:57:20;20.40;84.70
47338;DHT22;33069;51.970;5.892;2023-09-12T09:00:08;20.30;84.50
47338;DHT22;33069;51.970;5.892;2023-09-12T09:02:56;20.50;84.80
47338;DHT22;33069;51.970;5.892;2023-09-12T09:05:43;20.70;84.40
47338;DHT22;33069;51.970;5.892;2023-09-12T09:08:30;21.00;84.00
47338;DHT22;33069;51.970;5.892;2023-09-12T09:11:17;21.20;83.60
47338;DHT22;33069;51.970;5.892;2023-09-12T09:14:03;21.00;82.40
47338;DHT22;33069;51.970;5.892;2023-09-12T09:16:50;21.10;82.80
47338;DHT22;33069;51.970;5.892;2023-09-12T09:19:45;21.20;81.80
47338;DHT22;33069;51.970;5.892;2023-09-12T09:22:31;21.30;81.00
47338;DHT22;33069;51.970;5.892;2023-09-12T09:25:17;21.30;81.10
47338;DHT22;33069;51.970;5.892;2023-09-12T09:28:04;21.50;80.20
47338;DHT22;33069;51.970;5.892;2023-09-12T09:30:51;21.60;79.30
47338;DHT22;33069;51.970;5.892;2023-09-12T09:33:40;21.50;78.00
47338;DHT22;33069;51.970;5.892;2023-09-12T09:36:27;21.80;78.60
47338;DHT22;33069;51.970;5.892;2023-09-12T09:39:14;21.80;78.30
47338;DHT22;33069;51.970;5.892;2023-09-12T09:42:00;22.10;78.60
47338;DHT22;33069;51.970;5.892;2023-09-12T09:44:46;22.20;78.60
47338;DHT22;33069;51.970;5.892;2023-09-12T09:47:33;21.90;78.40
47338;DHT22;33069;51.970;5.892;2023-09-12T09:50:19;22.10;78.40
47338;DHT22;33069;51.970;5.892;2023-09-12T09:53:05;22.30;77.40
47338;DHT22;33069;51.970;5.892;2023-09-12T09:56:13;22.50;76.20
47338;DHT22;33069;51.970;5.892;2023-09-12T09:58:59;22.60;75.30
47338;DHT22;33069;51.970;5.892;2023-09-12T10:01:46;22.40;74.30
47338;DHT22;33069;51.970;5.892;2023-09-12T10:04:34;22.70;74.80
47338;DHT22;33069;51.970;5.892;2023-09-12T10:07:21;22.80;75.00
47338;DHT22;33069;51.970;5.892;2023-09-12T10:10:08;23.00;74.40
47338;DHT22;33069;51.970;5.892;2023-09-12T10:12:58;23.00;74.70
47338;DHT22;33069;51.970;5.892;2023-09-12T10:15:44;22.90;73.70
47338;DHT22;33069;51.970;5.892;2023-09-12T10:18:56;22.90;72.30
47338;DHT22;33069;51.970;5.892;2023-09-12T10:21:49;23.10;72.80
47338;DHT22;33069;51.970;5.892;2023-09-12T10:24:37;23.20;70.60
47338;DHT22;33069;51.970;5.892;2023-09-12T10:27:24;23.20;70.40
47338;DHT22;33069;51.970;5.892;2023-09-12T10:30:11;23.30;70.20
47338;DHT22;33069;51.970;5.892;2023-09-12T10:32:58;23.10;69.50
47338;DHT22;33069;51.970;5.892;2023-09-12T10:35:45;23.10;70.60
47338;DHT22;33069;51.970;5.892;2023-09-12T10:38:33;23.10;71.40
47338;DHT22;33069;51.970;5.892;2023-09-12T10:41:21;23.10;71.40
47338;DHT22;33069;51.970;5.892;2023-09-12T10:44:11;23.20;71.10
47338;DHT22;33069;51.970;5.892;2023-09-12T10:46:57;23.40;71.10
47338;DHT22;33069;51.970;5.892;2023-09-12T10:49:44;23.60;71.00
47338;DHT22;33069;51.970;5.892;2023-09-12T10:52:30;23.50;70.20
47338;DHT22;33069;51.970;5.892;2023-09-12T10:55:17;23.60;69.40
47338;DHT22;33069;51.970;5.892;2023-09-12T10:58:08;23.50;69.70
47338;DHT22;33069;51.970;5.892;2023-09-12T11:01:21;23.40;70.20
47338;DHT22;33069;51.970;5.892;2023-09-12T11:07:33;24.30;67.50
47338;DHT22;33069;51.970;5.892;2023-09-12T11:10:29;23.70;69.10
47338;DHT22;33069;51.970;5.892;2023-09-12T11:13:18;23.80;69.50
47338;DHT22;33069;51.970;5.892;2023-09-12T11:16:14;23.70;69.00
47338;DHT22;33069;51.970;5.892;2023-09-12T11:22:27;23.50;69.30
47338;DHT22;33069;51.970;5.892;2023-09-12T11:25:24;23.60;69.50
47338;DHT22;33069;51.970;5.892;2023-09-12T11:28:14;23.60;69.40
47338;DHT22;33069;51.970;5.892;2023-09-12T11:31:00;23.60;69.60
47338;DHT22;33069;51.970;5.892;2023-09-12T11:33:46;23.70;69.60
47338;DHT22;33069;51.970;5.892;2023-09-12T11:36:39;23.70;68.30
47338;DHT22;33069;51.970;5.892;2023-09-12T11:39:28;23.70;67.80
47338;DHT22;33069;51.970;5.892;2023-09-12T11:42:15;23.80;67.60
47338;DHT22;33069;51.970;5.892;2023-09-12T11:45:01;24.00;67.10
47338;DHT22;33069;51.970;5.892;2023-09-12T11:47:53;24.00;66.80
47338;DHT22;33069;51.970;5.892;2023-09-12T11:50:39;24.30;65.70
47338;DHT22;33069;51.970;5.892;2023-09-12T11:53:28;24.10;65.10
47338;DHT22;33069;51.970;5.892;2023-09-12T11:56:16;24.10;65.30
47338;DHT22;33069;51.970;5.892;2023-09-12T11:59:02;24.20;65.30
47338;DHT22;33069;51.970;5.892;2023-09-12T12:01:48;24.40;64.00
47338;DHT22;33069;51.970;5.892;2023-09-12T12:04:35;24.50;64.10
47338;DHT22;33069;51.970;5.892;2023-09-12T12:07:22;24.80;63.40
47338;DHT22;33069;51.970;5.892;2023-09-12T12:10:08;24.90;63.00
47338;DHT22;33069;51.970;5.892;2023-09-12T12:12:54;25.30;61.50
47338;DHT22;33069;51.970;5.892;2023-09-12T12:15:40;25.30;61.40
47338;DHT22;33069;51.970;5.892;2023-09-12T12:18:26;25.20;61.70
47338;DHT22;33069;51.970;5.892;2023-09-12T12:21:12;25.40;62.60
47338;DHT22;33069;51.970;5.892;2023-09-12T12:24:01;25.30;61.90
47338;DHT22;33069;51.970;5.892;2023-09-12T12:26:48;25.00;62.40
47338;DHT22;33069;51.970;5.892;2023-09-12T12:29:36;24.90;62.60
47338;DHT22;33069;51.970;5.892;2023-09-12T12:32:22;25.20;61.00
47338;DHT22;33069;51.970;5.892;2023-09-12T12:35:09;25.50;61.20
47338;DHT22;33069;51.970;5.892;2023-09-12T12:37:56;25.80;60.20
47338;DHT22;33069;51.970;5.892;2023-09-12T12:40:42;25.90;60.50
47338;DHT22;33069;51.970;5.892;2023-09-12T12:43:28;26.10;60.40
47338;DHT22;33069;51.970;5.892;2023-09-12T12:46:15;25.70;61.30
47338;DHT22;33069;51.970;5.892;2023-09-12T12:49:01;25.80;60.40
47338;DHT22;33069;51.970;5.892;2023-09-12T12:51:48;25.80;61.00
47338;DHT22;33069;51.970;5.892;2023-09-12T12:54:34;25.70;59.80
47338;DHT22;33069;51.970;5.892;2023-09-12T12:57:21;25.50;61.20
47338;DHT22;33069;51.970;5.892;2023-09-12T13:00:14;25.20;61.70
47338;DHT22;33069;51.970;5.892;2023-09-12T13:03:00;25.10;62.50
47338;DHT22;33069;51.970;5.892;2023-09-12T13:05:46;25.40;62.00
47338;DHT22;33069;51.970;5.892;2023-09-12T13:08:32;25.50;62.50
47338;DHT22;33069;51.970;5.892;2023-09-12T13:11:20;25.50;61.10
47338;DHT22;33069;51.970;5.892;2023-09-12T13:14:07;25.60;61.80
47338;DHT22;33069;51.970;5.892;2023-09-12T13:16:59;25.40;60.50
47338;DHT22;33069;51.970;5.892;2023-09-12T13:19:45;25.30;59.30
47338;DHT22;33069;51.970;5.892;2023-09-12T13:22:31;25.30;59.20
47338;DHT22;33069;51.970;5.892;2023-09-12T13:25:17;25.30;59.10
47338;DHT22;33069;51.970;5.892;2023-09-12T13:28:03;25.70;57.80
47338;DHT22;33069;51.970;5.892;2023-09-12T13:30:50;25.70;57.00
47338;DHT22;33069;51.970;5.892;2023-09-12T13:33:35;25.80;59.50
47338;DHT22;33069;51.970;5.892;2023-09-12T13:36:21;25.50;61.40
47338;DHT22;33069;51.970;5.892;2023-09-12T13:39:08;25.30;61.90
47338;DHT22;33069;51.970;5.892;2023-09-12T13:41:55;25.60;61.20
47338;DHT22;33069;51.970;5.892;2023-09-12T13:44:43;26.10;60.10
47338;DHT22;33069;51.970;5.892;2023-09-12T13:47:29;26.60;59.70
47338;DHT22;33069;51.970;5.892;2023-09-12T13:50:15;26.80;57.80
47338;DHT22;33069;51.970;5.892;2023-09-12T13:53:03;26.50;59.00
47338;DHT22;33069;51.970;5.892;2023-09-12T13:55:52;26.40;58.50
47338;DHT22;33069;51.970;5.892;2023-09-12T13:58:38;26.40;57.80
47338;DHT22;33069;51.970;5.892;2023-09-12T14:01:24;26.20;57.70
47338;DHT22;33069;51.970;5.892;2023-09-12T14:04:10;26.20;58.40
47338;DHT22;33069;51.970;5.892;2023-09-12T14:06:56;26.30;57.30
47338;DHT22;33069;51.970;5.892;2023-09-12T14:09:42;26.60;56.30
47338;DHT22;33069;51.970;5.892;2023-09-12T14:12:28;27.00;57.20
47338;DHT22;33069;51.970;5.892;2023-09-12T14:15:14;27.00;53.70
47338;DHT22;33069;51.970;5.892;2023-09-12T14:18:00;27.20;57.40
47338;DHT22;33069;51.970;5.892;2023-09-12T14:20:46;27.20;54.80
47338;DHT22;33069;51.970;5.892;2023-09-12T14:23:32;27.10;55.30
47338;DHT22;33069;51.970;5.892;2023-09-12T14:26:18;26.70;56.30
47338;DHT22;33069;51.970;5.892;2023-09-12T14:29:04;26.80;55.80
47338;DHT22;33069;51.970;5.892;2023-09-12T14:31:50;26.70;56.10
47338;DHT22;33069;51.970;5.892;2023-09-12T14:34:38;26.60;56.40
47338;DHT22;33069;51.970;5.892;2023-09-12T14:37:24;26.50;54.90
47338;DHT22;33069;51.970;5.892;2023-09-12T14:40:13;26.40;57.70
47338;DHT22;33069;51.970;5.892;2023-09-12T14:43:02;26.50;56.60
47338;DHT22;33069;51.970;5.892;2023-09-12T14:45:48;26.60;57.50
47338;DHT22;33069;51.970;5.892;2023-09-12T14:48:34;27.00;59.60
47338;DHT22;33069;51.970;5.892;2023-09-12T14:51:21;27.20;58.70
47338;DHT22;33069;51.970;5.892;2023-09-12T14:54:08;27.20;59.40
47338;DHT22;33069;51.970;5.892;2023-09-12T14:56:54;26.90;58.30
47338;DHT22;33069;51.970;5.892;2023-09-12T14:59:40;26.70;59.90
47338;DHT22;33069;51.970;5.892;2023-09-12T15:02:26;26.50;60.90
47338;DHT22;33069;51.970;5.892;2023-09-12T15:05:17;26.50;58.40
47338;DHT22;33069;51.970;5.892;2023-09-12T15:08:03;26.90;56.00
47338;DHT22;33069;51.970;5.892;2023-09-12T15:10:49;26.80;58.80
47338;DHT22;33069;51.970;5.892;2023-09-12T15:13:35;26.00;59.90
47338;DHT22;33069;51.970;5.892;2023-09-12T15:16:21;26.20;60.80
47338;DHT22;33069;51.970;5.892;2023-09-12T15:19:07;26.00;60.80
47338;DHT22;33069;51.970;5.892;2023-09-12T15:21:53;26.00;60.80
47338;DHT22;33069;51.970;5.892;2023-09-12T15:24:42;26.00;61.10
47338;DHT22;33069;51.970;5.892;2023-09-12T15:27:28;26.10;60.10
47338;DHT22;33069;51.970;5.892;2023-09-12T15:30:14;25.70;61.10
47338;DHT22;33069;51.970;5.892;2023-09-12T15:33:00;25.50;60.90
47338;DHT22;33069;51.970;5.892;2023-09-12T15:35:46;25.40;61.20
47338;DHT22;33069;51.970;5.892;2023-09-12T15:38:32;25.50;61.30
47338;DHT22;33069;51.970;5.892;2023-09-12T15:41:18;25.50;61.50
47338;DHT22;33069;51.970;5.892;2023-09-12T15:44:05;25.30;61.00
47338;DHT22;33069;51.970;5.892;2023-09-12T15:46:51;25.10;61.90
47338;DHT22;33069;51.970;5.892;2023-09-12T15:49:39;25.20;62.10
47338;DHT22;33069;51.970;5.892;2023-09-12T15:52:25;25.20;62.80
47338;DHT22;33069;51.970;5.892;2023-09-12T15:55:11;25.20;63.70
47338;DHT22;33069;51.970;5.892;2023-09-12T15:57:57;25.30;63.00
47338;DHT22;33069;51.970;5.892;2023-09-12T16:00:43;25.40;63.20
47338;DHT22;33069;51.970;5.892;2023-09-12T16:03:31;25.50;63.10
47338;DHT22;33069;51.970;5.892;2023-09-12T16:06:16;25.40;63.30
47338;DHT22;33069;51.970;5.892;2023-09-12T16:09:03;25.50;62.70
47338;DHT22;33069;51.970;5.892;2023-09-12T16:11:50;25.50;62.50
47338;DHT22;33069;51.970;5.892;2023-09-12T16:14:36;25.60;61.60
47338;DHT22;33069;51.970;5.892;2023-09-12T16:17:23;25.50;61.70
47338;DHT22;33069;51.970;5.892;2023-09-12T16:20:10;25.20;62.90
47338;DHT22;33069;51.970;5.892;2023-09-12T16:22:58;25.40;62.40
47338;DHT22;33069;51.970;5.892;2023-09-12T16:25:44;25.80;61.80
47338;DHT22;33069;51.970;5.892;2023-09-12T16:28:31;25.80;62.00
47338;DHT22;33069;51.970;5.892;2023-09-12T16:31:17;25.80;62.40
47338;DHT22;33069;51.970;5.892;2023-09-12T16:34:03;25.50;64.20
47338;DHT22;33069;51.970;5.892;2023-09-12T16:36:50;25.50;64.30
47338;DHT22;33069;51.970;5.892;2023-09-12T16:39:36;25.20;63.80
47338;DHT22;33069;51.970;5.892;2023-09-12T16:42:27;24.60;65.70
47338;DHT22;33069;51.970;5.892;2023-09-12T16:45:16;23.90;68.60
47338;DHT22;33069;51.970;5.892;2023-09-12T16:48:01;23.70;69.40
47338;DHT22;33069;51.970;5.892;2023-09-12T16:50:50;23.50;69.70
47338;DHT22;33069;51.970;5.892;2023-09-12T16:53:36;23.50;70.50
47338;DHT22;33069;51.970;5.892;2023-09-12T16:56:23;23.30;71.10
47338;DHT22;33069;51.970;5.892;2023-09-12T16:59:09;23.30;72.00
47338;DHT22;33069;51.970;5.892;2023-09-12T17:01:55;23.10;72.20
47338;DHT22;33069;51.970;5.892;2023-09-12T17:04:41;23.10;72.60
47338;DHT22;33069;51.970;5.892;2023-09-12T17:07:28;23.00;72.70
47338;DHT22;33069;51.970;5.892;2023-09-12T17:10:15;23.00;73.10
47338;DHT22;33069;51.970;5.892;2023-09-12T17:13:01;23.00;73.50
47338;DHT22;33069;51.970;5.892;2023-09-12T17:15:47;22.90;73.60
47338;DHT22;33069;51.970;5.892;2023-09-12T17:18:32;22.90;73.80
47338;DHT22;33069;51.970;5.892;2023-09-12T17:21:20;22.80;74.10
47338;DHT22;33069;51.970;5.892;2023-09-12T17:24:06;22.80;73.80
47338;DHT22;33069;51.970;5.892;2023-09-12T17:26:52;22.80;73.90
47338;DHT22;33069;51.970;5.892;2023-09-12T17:29:39;22.80;73.90
47338;DHT22;33069;51.970;5.892;2023-09-12T17:32:25;22.90;74.10
47338;DHT22;33069;51.970;5.892;2023-09-12T17:35:13;22.70;74.90
47338;DHT22;33069;51.970;5.892;2023-09-12T17:37:59;22.70;75.50
47338;DHT22;33069;51.970;5.892;2023-09-12T17:40:45;22.60;75.60